Time;durP1;ratioP1;P1;durP2;ratioP2;P2;SDS_P1;SDS_P2;PMS_P1;PMS_P2;Temp;Humidity;BMP_temperature;BMP_pressure;BME280_temperature;BME280_humidity;BME280_pressure;Samples;Min_cycle;Max_cycle;Signal;HPM_P1;HPM_P2
2022/12/30 00:01:24;;;;;;;7.63;1.58;;;6.90;99.90;;;;;;5013146;28;20053;-38
2022/12/30 00:03:50;;;;;;;10.43;2.05;;;6.80;99.90;;;;;;5014248;28;20032;-43
2022/12/30 00:06:19;;;;;;;9.20;2.05;;;6.90;99.90;;;;;;5013827;28;20521;-41
2022/12/30 00:08:50;;;;;;;10.80;1.55;;;6.80;99.90;;;;;;5013356;28;20026;-42
2022/12/30 00:11:25;;;;;;;23.70;2.05;;;6.80;99.90;;;;;;5012479;28;20029;-42
2022/12/30 00:33:47;;;;;;;10.38;1.40;;;6.70;99.90;;;;;;5007381;28;20045;-46
2022/12/30 00:36:13;;;;;;;9.63;2.10;;;6.70;99.90;;;;;;5005255;28;20029;-48
2022/12/30 00:38:39;;;;;;;6.63;1.02;;;6.70;99.90;;;;;;5008005;28;20393;-37
2022/12/30 00:43:49;;;;;;;6.32;1.33;;;6.70;99.90;;;;;;5003887;28;20548;-42
2022/12/30 00:46:15;;;;;;;9.25;2.78;;;6.70;99.90;;;;;;5009890;28;20018;-41
2022/12/30 00:56:52;;;;;;;10.25;1.00;;;6.50;99.90;;;;;;5009772;28;20040;-41
2022/12/30 00:59:18;;;;;;;10.07;1.23;;;6.50;99.90;;;;;;5011655;28;20025;-42
2022/12/30 01:01:44;;;;;;;7.15;1.35;;;6.50;99.90;;;;;;5004798;28;20026;-40
2022/12/30 01:04:09;;;;;;;14.38;1.30;;;6.50;99.90;;;;;;5010384;28;20076;-42
2022/12/30 01:06:37;;;;;;;10.07;1.30;;;6.50;99.90;;;;;;5010527;28;20105;-37
2022/12/30 01:09:03;;;;;;;14.70;1.50;;;6.50;99.90;;;;;;5011763;28;20030;-42
2022/12/30 01:11:28;;;;;;;8.13;1.00;;;6.60;99.90;;;;;;5010471;28;20042;-41
2022/12/30 01:13:54;;;;;;;8.20;1.10;;;6.60;99.90;;;;;;5012774;28;20026;-43
2022/12/30 01:16:20;;;;;;;8.00;2.00;;;6.50;99.90;;;;;;5009967;28;20038;-35
2022/12/30 01:18:45;;;;;;;11.20;1.10;;;6.50;99.90;;;;;;5011508;28;20053;-47
2022/12/30 01:21:11;;;;;;;6.60;1.17;;;6.50;99.90;;;;;;5011096;28;20029;-42
2022/12/30 01:23:37;;;;;;;11.77;1.40;;;6.60;99.90;;;;;;5009886;28;20025;-40
2022/12/30 01:26:06;;;;;;;18.08;1.85;;;6.60;99.90;;;;;;5011257;28;20497;-41
2022/12/30 01:28:36;;;;;;;9.38;1.58;;;6.60;99.90;;;;;;5005399;28;20014;-41
2022/12/30 01:31:05;;;;;;;4.78;1.40;;;6.60;99.90;;;;;;5012308;28;20041;-42
2022/12/30 01:33:31;;;;;;;6.18;0.70;;;6.70;99.90;;;;;;5012903;28;20460;-39
2022/12/30 01:35:57;;;;;;;12.43;1.27;;;6.60;99.90;;;;;;5000298;28;20030;-43
2022/12/30 01:38:22;;;;;;;9.15;1.10;;;6.70;99.90;;;;;;5000942;28;20042;-45
2022/12/30 01:40:48;;;;;;;8.82;1.80;;;6.70;99.90;;;;;;5011506;28;20534;-41
2022/12/30 01:43:16;;;;;;;16.08;1.77;;;6.70;99.90;;;;;;5010278;28;20055;-41
2022/12/30 01:45:47;;;;;;;14.18;2.15;;;6.60;99.90;;;;;;5011161;28;20014;-39
2022/12/30 01:48:19;;;;;;;4.07;1.27;;;6.60;99.90;;;;;;5011016;28;20046;-41
2022/12/30 01:50:50;;;;;;;9.60;2.15;;;6.60;99.90;;;;;;4993369;28;20504;-41
2022/12/30 01:53:19;;;;;;;11.95;1.05;;;6.60;99.90;;;;;;5006502;28;20080;-42
2022/12/30 01:56:01;;;;;;;3.67;1.75;;;6.70;99.90;;;;;;5012172;28;20030;-41
2022/12/30 01:59:00;;;;;;;6.40;1.30;;;6.70;99.90;;;;;;5012955;28;20034;-41
2022/12/30 02:01:26;;;;;;;9.82;1.60;;;6.70;99.90;;;;;;5007391;28;20096;-42
2022/12/30 02:04:00;;;;;;;5.57;1.83;;;6.70;99.90;;;;;;5011127;28;20034;-40
2022/12/30 02:06:47;;;;;;;10.88;1.63;;;6.60;99.90;;;;;;5006440;28;20022;-42
2022/12/30 02:09:12;;;;;;;5.43;1.08;;;6.60;99.90;;;;;;5005553;28;20561;-42
2022/12/30 02:11:38;;;;;;;8.05;1.10;;;6.60;99.90;;;;;;5008177;28;20125;-37
2022/12/30 02:14:04;;;;;;;6.55;1.90;;;6.60;99.90;;;;;;5011040;28;20375;-39
2022/12/30 02:16:32;;;;;;;6.55;2.20;;;6.60;99.90;;;;;;5002611;28;20033;-38
2022/12/30 02:19:10;;;;;;;5.15;1.45;;;6.70;99.90;;;;;;5013270;28;20029;-34
2022/12/30 02:21:48;;;;;;;15.55;1.45;;;6.60;99.90;;;;;;5012427;28;20033;-37
2022/12/30 02:24:50;;;;;;;7.07;1.10;;;6.70;99.90;;;;;;5010013;28;20501;-37
2022/12/30 02:27:42;;;;;;;10.10;1.67;;;6.60;99.90;;;;;;5013192;28;20041;-43
2022/12/30 02:30:52;;;;;;;8.55;1.38;;;6.70;99.90;;;;;;5015869;28;20486;-41
2022/12/30 02:33:41;;;;;;;7.22;1.50;;;6.70;99.90;;;;;;5018553;28;20067;-44
2022/12/30 02:36:19;;;;;;;10.35;1.58;;;6.60;99.90;;;;;;5015995;28;20030;-44
2022/12/30 02:39:11;;;;;;;13.27;2.03;;;6.60;99.90;;;;;;5015557;28;20030;-42
2022/12/30 02:44:41;;;;;;;7.90;1.58;;;6.60;99.90;;;;;;5015235;28;20037;-38
2022/12/30 02:47:41;;;;;;;8.95;1.85;;;6.60;99.90;;;;;;5015806;28;20040;-42
2022/12/30 02:52:59;;;;;;;15.88;1.70;;;6.60;99.90;;;;;;5014851;28;20095;-33
2022/12/30 02:55:24;;;;;;;6.30;1.45;;;6.60;99.90;;;;;;5014048;28;20043;-38
2022/12/30 02:57:50;;;;;;;10.57;1.67;;;6.60;99.90;;;;;;5013968;28;20616;-37
2022/12/30 03:06:08;;;;;;;9.65;1.95;;;6.60;99.90;;;;;;5011916;28;20115;-45
2022/12/30 03:09:02;;;;;;;16.15;2.00;;;6.60;99.90;;;;;;5015189;28;20026;-43
2022/12/30 03:11:37;;;;;;;13.77;2.83;;;6.60;99.90;;;;;;5013823;28;20427;-40
2022/12/30 03:14:24;;;;;;;7.18;1.60;;;6.60;99.90;;;;;;5015271;28;20074;-42
2022/12/30 03:16:53;;;;;;;10.02;2.00;;;6.70;99.90;;;;;;5014297;28;20128;-34
2022/12/30 03:19:23;;;;;;;10.05;1.42;;;6.60;99.90;;;;;;5012833;28;20105;-35
2022/12/30 03:21:53;;;;;;;3.83;1.98;;;6.60;99.90;;;;;;5000753;28;20030;-32
2022/12/30 03:27:11;;;;;;;11.20;2.08;;;6.60;99.90;;;;;;5015027;28;20100;-37
2022/12/30 03:29:41;;;;;;;11.90;1.83;;;6.60;99.90;;;;;;5014520;28;20034;-36
2022/12/30 03:32:10;;;;;;;12.23;2.58;;;6.60;99.90;;;;;;5013754;28;20478;-35
2022/12/30 03:34:36;;;;;;;9.18;2.17;;;6.50;99.90;;;;;;5013791;28;20452;-38
2022/12/30 03:37:20;;;;;;;4.65;1.98;;;6.40;99.90;;;;;;5013945;28;20061;-41
2022/12/30 03:39:57;;;;;;;12.30;1.55;;;6.40;99.90;;;;;;5014831;28;20030;-42
2022/12/30 03:42:24;;;;;;;9.93;1.80;;;6.40;99.90;;;;;;5013699;28;20121;-40
2022/12/30 03:44:50;;;;;;;13.68;2.00;;;6.50;99.90;;;;;;5014129;28;20502;-43
2022/12/30 03:47:18;;;;;;;8.60;1.92;;;6.40;99.90;;;;;;5013665;28;20105;-42
2022/12/30 03:49:44;;;;;;;11.00;1.88;;;6.40;99.90;;;;;;5012747;28;20038;-43
2022/12/30 03:52:11;;;;;;;13.07;1.60;;;6.40;99.90;;;;;;5009679;28;20824;-37
2022/12/30 03:54:37;;;;;;;7.32;1.20;;;6.40;99.90;;;;;;5014364;28;20022;-52
2022/12/30 03:57:02;;;;;;;15.77;1.42;;;6.40;99.90;;;;;;5012165;28;20474;-37
2022/12/30 03:59:28;;;;;;;13.60;1.80;;;6.40;99.90;;;;;;5014403;28;20032;-34
2022/12/30 04:01:54;;;;;;;9.38;2.25;;;6.40;99.90;;;;;;5011501;28;20501;-34
2022/12/30 04:04:20;;;;;;;13.35;2.33;;;6.40;99.90;;;;;;5013786;28;20217;-34
2022/12/30 04:06:46;;;;;;;12.98;2.03;;;6.40;99.90;;;;;;5014561;28;20533;-34
2022/12/30 04:09:12;;;;;;;5.65;1.85;;;6.40;99.90;;;;;;5012351;28;20113;-39
2022/12/30 04:11:38;;;;;;;9.93;1.83;;;6.30;99.90;;;;;;5014113;28;20180;-38
2022/12/30 04:14:04;;;;;;;12.10;1.33;;;6.40;99.90;;;;;;5011315;28;20038;-40
2022/12/30 04:16:29;;;;;;;18.15;2.13;;;6.40;99.90;;;;;;5013100;28;20470;-39
2022/12/30 04:18:56;;;;;;;19.90;2.22;;;6.40;99.90;;;;;;5013581;28;20457;-36
2022/12/30 04:21:22;;;;;;;6.85;2.38;;;6.40;99.90;;;;;;5013217;28;20092;-35
2022/12/30 04:23:47;;;;;;;8.93;1.27;;;6.40;99.90;;;;;;5013159;28;20030;-36
2022/12/30 04:26:13;;;;;;;13.88;1.75;;;6.40;99.90;;;;;;5013783;28;20393;-50
2022/12/30 04:28:39;;;;;;;18.42;2.17;;;6.40;99.90;;;;;;5014107;28;20030;-41
2022/12/30 04:31:05;;;;;;;7.43;1.27;;;6.30;99.90;;;;;;5012795;28;20072;-42
2022/12/30 04:33:31;;;;;;;9.13;1.27;;;6.30;99.90;;;;;;5012892;28;20026;-41
2022/12/30 04:35:56;;;;;;;12.05;1.67;;;6.20;99.90;;;;;;5013118;28;20122;-43
2022/12/30 04:38:22;;;;;;;4.95;1.90;;;6.30;99.90;;;;;;5013777;28;20029;-46
2022/12/30 04:40:48;;;;;;;7.75;1.15;;;6.30;99.90;;;;;;5012996;28;20030;-48
2022/12/30 04:43:14;;;;;;;5.32;1.33;;;6.20;99.90;;;;;;5013039;28;20030;-47
2022/12/30 04:45:39;;;;;;;13.35;1.63;;;6.20;99.90;;;;;;5012948;28;20021;-51
2022/12/30 04:48:05;;;;;;;5.68;1.00;;;6.10;99.90;;;;;;5011109;28;20065;-54
2022/12/30 04:50:31;;;;;;;27.17;2.17;;;6.10;99.90;;;;;;5012202;28;20026;-43
2022/12/30 04:52:57;;;;;;;7.10;1.75;;;6.00;99.90;;;;;;5013640;28;20034;-43
2022/12/30 04:55:22;;;;;;;8.40;1.83;;;6.00;99.90;;;;;;5013528;28;20049;-44
2022/12/30 04:57:48;;;;;;;10.30;1.98;;;5.90;99.90;;;;;;5012786;28;20034;-48
2022/12/30 05:00:16;;;;;;;15.02;1.75;;;5.90;99.90;;;;;;5013340;28;20030;-46
2022/12/30 05:02:42;;;;;;;10.60;1.77;;;6.00;99.90;;;;;;5011369;28;20057;-31
2022/12/30 05:05:08;;;;;;;12.35;1.85;;;6.00;99.90;;;;;;5012609;28;20057;-39
2022/12/30 05:07:34;;;;;;;7.05;1.67;;;5.90;99.90;;;;;;5013155;28;20486;-36
2022/12/30 05:09:59;;;;;;;14.30;2.17;;;5.90;99.90;;;;;;5013231;28;20096;-43
2022/12/30 05:12:25;;;;;;;12.75;2.78;;;5.80;99.90;;;;;;5011793;28;20393;-42
2022/12/30 05:14:50;;;;;;;7.78;1.85;;;5.80;99.90;;;;;;5013258;28;20068;-43
2022/12/30 05:17:16;;;;;;;6.70;1.45;;;5.80;99.90;;;;;;5012103;28;20042;-43
2022/12/30 05:19:42;;;;;;;7.82;1.30;;;5.80;99.90;;;;;;5011783;28;20026;-42
2022/12/30 05:22:07;;;;;;;10.77;1.55;;;5.80;99.90;;;;;;5012245;28;20454;-42
2022/12/30 05:27:17;;;;;;;13.05;1.73;;;5.90;99.90;;;;;;5012397;28;20076;-44
2022/12/30 05:29:43;;;;;;;6.65;1.52;;;5.80;99.90;;;;;;5011721;28;20486;-42
2022/12/30 05:32:08;;;;;;;17.13;2.13;;;5.80;99.90;;;;;;5012439;28;20029;-53
2022/12/30 05:34:34;;;;;;;7.47;1.77;;;5.80;99.90;;;;;;5012648;28;20536;-40
2022/12/30 05:36:59;;;;;;;7.00;1.52;;;5.80;99.90;;;;;;5017073;28;20037;-39
2022/12/30 05:39:25;;;;;;;13.38;2.22;;;5.80;99.90;;;;;;5016399;28;20462;-42
2022/12/30 05:41:51;;;;;;;7.03;1.95;;;5.80;99.90;;;;;;5016888;28;20076;-36
2022/12/30 05:44:16;;;;;;;8.93;1.45;;;5.80;99.90;;;;;;5017147;28;20293;-36
2022/12/30 05:46:42;;;;;;;5.93;1.73;;;5.80;99.90;;;;;;5015442;28;20109;-47
2022/12/30 05:49:08;;;;;;;11.35;1.83;;;5.80;99.90;;;;;;5016720;28;20025;-36
2022/12/30 05:51:33;;;;;;;9.90;1.60;;;5.80;99.90;;;;;;5015944;28;20034;-40
2022/12/30 05:53:59;;;;;;;8.50;1.60;;;5.80;99.90;;;;;;5016703;28;20540;-42
2022/12/30 05:56:24;;;;;;;10.40;2.40;;;5.80;99.90;;;;;;5015692;28;20036;-33
2022/12/30 05:58:50;;;;;;;9.23;1.33;;;5.80;99.90;;;;;;5016067;28;20022;-36
2022/12/30 06:01:16;;;;;;;7.15;1.50;;;5.80;99.90;;;;;;5015101;28;20116;-33
2022/12/30 06:03:41;;;;;;;11.48;2.33;;;5.80;99.90;;;;;;5016764;28;20029;-38
2022/12/30 06:06:09;;;;;;;11.90;2.15;;;5.90;99.90;;;;;;5016018;28;20377;-38
2022/12/30 06:08:36;;;;;;;14.18;1.20;;;5.80;99.90;;;;;;5016353;28;20503;-41
2022/12/30 06:11:01;;;;;;;7.57;1.40;;;5.80;99.90;;;;;;5015768;28;20449;-32
2022/12/30 06:13:27;;;;;;;10.75;2.25;;;5.80;99.90;;;;;;5015822;28;20062;-39
2022/12/30 06:15:53;;;;;;;8.38;1.52;;;5.80;99.90;;;;;;5015476;28;20041;-35
2022/12/30 06:18:19;;;;;;;13.38;2.85;;;5.90;99.90;;;;;;5016091;28;20045;-39
2022/12/30 06:20:45;;;;;;;16.33;2.25;;;5.80;99.90;;;;;;5015507;28;20069;-36
2022/12/30 06:23:11;;;;;;;4.82;2.33;;;5.80;99.90;;;;;;5016244;28;20551;-38
2022/12/30 06:25:37;;;;;;;12.77;1.40;;;5.80;99.90;;;;;;5015981;28;20022;-36
2022/12/30 06:28:02;;;;;;;8.95;1.45;;;5.80;99.90;;;;;;5016459;28;20029;-36
2022/12/30 06:30:28;;;;;;;9.65;1.40;;;5.80;99.90;;;;;;5015609;28;20030;-41
2022/12/30 06:32:54;;;;;;;16.70;1.73;;;5.80;99.90;;;;;;5015277;28;20022;-36
2022/12/30 06:35:20;;;;;;;21.73;3.30;;;5.80;99.90;;;;;;5014643;28;20386;-39
2022/12/30 06:37:46;;;;;;;7.57;1.55;;;5.90;99.90;;;;;;5014837;28;20026;-35
2022/12/30 06:40:12;;;;;;;7.50;1.52;;;5.90;99.90;;;;;;5013543;28;20429;-42
2022/12/30 06:42:38;;;;;;;13.20;2.00;;;5.80;99.90;;;;;;5013249;28;20021;-38
2022/12/30 06:45:04;;;;;;;13.80;1.67;;;5.80;99.90;;;;;;5014739;28;20499;-37
2022/12/30 06:47:30;;;;;;;13.88;2.10;;;5.80;99.90;;;;;;5012753;28;20105;-45
2022/12/30 06:49:56;;;;;;;11.23;1.50;;;5.80;99.90;;;;;;5014446;28;20034;-41
2022/12/30 06:52:22;;;;;;;3.08;1.58;;;5.90;99.90;;;;;;5013262;28;20096;-45
2022/12/30 06:57:33;;;;;;;7.53;1.58;;;5.90;99.90;;;;;;5015176;28;20045;-41
2022/12/30 06:59:59;;;;;;;9.10;2.03;;;5.90;99.90;;;;;;5010196;28;20054;-41
2022/12/30 07:02:25;;;;;;;23.48;2.97;;;5.80;99.90;;;;;;5006858;28;20058;-43
2022/12/30 07:04:50;;;;;;;7.88;1.15;;;5.80;99.90;;;;;;5012489;28;20026;-42
2022/12/30 07:07:16;;;;;;;16.98;2.03;;;5.70;99.90;;;;;;5012343;28;20029;-45
2022/12/30 07:09:42;;;;;;;12.85;2.05;;;5.80;99.90;;;;;;5014891;28;20026;-43
2022/12/30 07:12:07;;;;;;;15.95;2.15;;;5.70;99.90;;;;;;5013963;28;20057;-41
2022/12/30 07:14:33;;;;;;;13.38;1.83;;;5.70;99.90;;;;;;5014509;28;20084;-36
2022/12/30 07:16:58;;;;;;;9.32;2.00;;;5.70;99.90;;;;;;5013361;28;20278;-35
2022/12/30 07:19:25;;;;;;;13.40;1.83;;;5.70;99.90;;;;;;5014405;28;20030;-35
2022/12/30 07:21:51;;;;;;;11.50;1.90;;;5.70;99.90;;;;;;5010199;28;20076;-36
2022/12/30 07:24:16;;;;;;;20.50;2.05;;;5.70;99.90;;;;;;5012269;28;20453;-42
2022/12/30 07:26:42;;;;;;;8.27;1.45;;;5.70;99.90;;;;;;5013295;28;20525;-43
2022/12/30 07:29:26;;;;;;;13.30;1.73;;;5.70;99.90;;;;;;5014581;28;20021;-42
2022/12/30 07:31:52;;;;;;;7.88;1.30;;;5.70;99.90;;;;;;5010667;28;20036;-34
2022/12/30 07:34:17;;;;;;;13.68;2.38;;;5.70;99.90;;;;;;5012392;28;20378;-41
2022/12/30 07:36:43;;;;;;;14.32;1.98;;;5.70;99.90;;;;;;5014174;28;20080;-37
2022/12/30 07:39:09;;;;;;;9.30;1.88;;;5.70;99.90;;;;;;5014272;28;20022;-35
2022/12/30 07:41:34;;;;;;;15.30;2.30;;;5.70;99.90;;;;;;5013943;28;20037;-39
2022/12/30 07:44:00;;;;;;;5.93;2.00;;;5.80;99.90;;;;;;5010971;28;20032;-38
2022/12/30 07:46:26;;;;;;;6.15;1.95;;;5.80;99.90;;;;;;5013038;28;20390;-37
2022/12/30 07:48:51;;;;;;;7.75;1.52;;;5.80;99.90;;;;;;5012724;28;20026;-42
2022/12/30 07:51:17;;;;;;;11.23;1.42;;;5.80;99.90;;;;;;5013372;28;20113;-33
2022/12/30 07:53:44;;;;;;;5.45;1.80;;;5.80;99.90;;;;;;5014480;28;20375;-36
2022/12/30 07:56:11;;;;;;;15.65;2.70;;;5.80;99.90;;;;;;5004177;28;20077;-39
2022/12/30 07:58:38;;;;;;;8.13;2.47;;;5.80;99.90;;;;;;4994712;28;20045;-38
2022/12/30 08:01:11;;;;;;;6.03;2.15;;;5.80;99.90;;;;;;4998120;28;20071;-32
2022/12/30 08:03:38;;;;;;;10.70;2.83;;;5.90;99.90;;;;;;5009524;28;20489;-37
2022/12/30 08:06:13;;;;;;;11.18;2.75;;;5.90;99.90;;;;;;5013960;28;20034;-39
2022/12/30 08:08:39;;;;;;;10.05;2.35;;;5.90;99.90;;;;;;5014128;28;20049;-38
2022/12/30 08:11:06;;;;;;;10.27;2.30;;;5.90;99.90;;;;;;5013535;28;20478;-33
2022/12/30 08:13:34;;;;;;;10.48;2.00;;;5.90;99.90;;;;;;5012729;28;20017;-40
2022/12/30 08:16:03;;;;;;;8.52;2.08;;;5.90;99.90;;;;;;5010113;28;20526;-38
2022/12/30 08:18:29;;;;;;;11.38;2.08;;;6.00;99.90;;;;;;5000917;28;20065;-32
2022/12/30 08:20:59;;;;;;;4.70;1.48;;;6.00;99.90;;;;;;5013374;28;20111;-38
2022/12/30 08:23:24;;;;;;;15.65;1.92;;;6.00;99.90;;;;;;5012171;28;20426;-43
2022/12/30 08:25:50;;;;;;;9.48;2.05;;;6.10;99.90;;;;;;5012660;28;20066;-43
2022/12/30 08:28:15;;;;;;;14.75;2.40;;;6.10;99.90;;;;;;5024050;28;20033;-35
2022/12/30 08:30:41;;;;;;;11.32;2.13;;;6.10;99.90;;;;;;5032138;28;20474;-36
2022/12/30 08:33:06;;;;;;;8.98;1.67;;;6.10;99.90;;;;;;5011771;28;20025;-39
2022/12/30 08:35:35;;;;;;;9.75;2.80;;;6.20;99.90;;;;;;5001431;28;20207;-39
2022/12/30 08:38:00;;;;;;;6.22;2.03;;;6.10;99.90;;;;;;5006049;28;20041;-37
2022/12/30 08:40:26;;;;;;;7.53;1.88;;;6.20;99.90;;;;;;5012136;28;20490;-45
2022/12/30 08:42:52;;;;;;;9.52;1.92;;;6.20;99.90;;;;;;5012957;28;20030;-38
2022/12/30 08:45:17;;;;;;;10.07;2.15;;;6.30;99.90;;;;;;5013833;28;20492;-38
2022/12/30 08:47:43;;;;;;;20.77;3.63;;;6.30;99.90;;;;;;5011885;28;20037;-39
2022/12/30 08:50:09;;;;;;;5.75;2.05;;;6.40;99.90;;;;;;4999857;28;20030;-39
2022/12/30 08:52:36;;;;;;;6.72;2.17;;;6.40;99.90;;;;;;4994172;28;20030;-42
2022/12/30 08:55:01;;;;;;;11.55;1.95;;;6.50;99.90;;;;;;4994108;28;20441;-39
2022/12/30 08:57:27;;;;;;;7.88;1.95;;;6.50;99.90;;;;;;5009244;28;20026;-37
2022/12/30 08:59:53;;;;;;;7.35;2.00;;;6.50;99.90;;;;;;5009649;28;20037;-43
2022/12/30 09:02:18;;;;;;;6.63;2.47;;;6.60;99.90;;;;;;5009660;28;20029;-35
2022/12/30 09:04:44;;;;;;;14.77;3.28;;;6.60;99.90;;;;;;5008596;28;20121;-40
2022/12/30 09:07:09;;;;;;;12.73;3.08;;;6.60;99.90;;;;;;5012126;28;20119;-41
2022/12/30 09:09:36;;;;;;;7.68;3.28;;;6.70;99.90;;;;;;5009851;28;20164;-38
2022/12/30 09:12:02;;;;;;;5.53;2.03;;;6.80;99.90;;;;;;5003330;28;20523;-40
2022/12/30 09:14:28;;;;;;;9.07;1.90;;;6.80;99.90;;;;;;5005206;28;20496;-38
2022/12/30 09:16:54;;;;;;;8.82;2.15;;;6.90;99.90;;;;;;5008858;28;20038;-37
2022/12/30 09:19:19;;;;;;;10.75;1.77;;;7.00;99.90;;;;;;5011384;28;20033;-35
2022/12/30 09:21:45;;;;;;;5.68;1.85;;;7.00;99.90;;;;;;5013173;28;20482;-37
2022/12/30 09:24:11;;;;;;;7.43;2.45;;;7.10;99.90;;;;;;5012382;28;20033;-35
2022/12/30 09:26:36;;;;;;;18.60;6.18;;;7.10;99.90;;;;;;5012731;28;20029;-40
2022/12/30 09:29:02;;;;;;;3.40;1.92;;;7.20;99.90;;;;;;5011960;28;20037;-38
2022/12/30 09:31:28;;;;;;;6.32;1.88;;;7.20;99.90;;;;;;5010658;28;20113;-41
2022/12/30 09:33:54;;;;;;;4.78;1.38;;;7.30;99.90;;;;;;5012997;28;20030;-36
2022/12/30 09:36:20;;;;;;;5.03;2.97;;;7.30;99.90;;;;;;5012798;28;20026;-39
2022/12/30 09:38:46;;;;;;;8.80;2.28;;;7.40;99.90;;;;;;5011488;28;20044;-41
2022/12/30 09:44:40;;;;;;;5.13;2.20;;;7.40;99.90;;;;;;5006199;28;20168;-40
2022/12/30 09:47:40;;;;;;;1.50;1.40;;;7.50;99.90;;;;;;5005136;28;20065;-37
2022/12/30 09:50:21;;;;;;;4.97;1.10;;;7.60;99.90;;;;;;5004641;28;20023;-36
2022/12/30 09:53:06;;;;;;;4.00;1.38;;;7.60;99.90;;;;;;4993189;28;20375;-38
2022/12/30 09:55:47;;;;;;;7.50;1.77;;;7.60;99.90;;;;;;4993225;28;20034;-38
2022/12/30 09:58:21;;;;;;;4.28;1.73;;;7.70;99.90;;;;;;4999240;28;20072;-41
2022/12/30 10:00:49;;;;;;;9.55;1.63;;;7.70;99.90;;;;;;5009386;28;20030;-40
2022/12/30 10:03:20;;;;;;;7.00;1.40;;;7.80;99.90;;;;;;5012564;28;20030;-34
2022/12/30 10:06:10;;;;;;;5.32;2.25;;;7.80;99.90;;;;;;5011913;28;20470;-42
2022/12/30 10:08:42;;;;;;;5.00;1.45;;;7.80;99.90;;;;;;4998577;28;20446;-37
2022/12/30 10:11:29;;;;;;;3.78;1.42;;;7.90;99.90;;;;;;5007816;28;20026;-36
2022/12/30 10:13:55;;;;;;;4.07;0.87;;;7.90;99.90;;;;;;5002459;28;20029;-37
2022/12/30 10:16:51;;;;;;;2.85;1.40;;;8.00;99.90;;;;;;5008243;28;20834;-38
2022/12/30 10:19:17;;;;;;;3.72;1.10;;;8.00;99.90;;;;;;5003365;28;20382;-49
2022/12/30 10:22:21;;;;;;;4.13;1.42;;;8.10;99.90;;;;;;5008894;28;20037;-40
2022/12/30 10:24:53;;;;;;;6.75;1.17;;;8.10;99.90;;;;;;5009611;28;20084;-40
2022/12/30 10:30:16;;;;;;;5.70;1.63;;;8.10;99.90;;;;;;5012873;28;20045;-41
2022/12/30 10:33:15;;;;;;;1.55;1.15;;;8.10;99.90;;;;;;5008162;28;20537;-37
2022/12/30 10:35:42;;;;;;;4.88;1.58;;;8.20;99.90;;;;;;4996368;28;20038;-40
2022/12/30 10:38:14;;;;;;;2.55;1.75;;;8.20;99.90;;;;;;4995991;28;20084;-38
2022/12/30 10:40:54;;;;;;;6.43;3.83;;;8.20;99.90;;;;;;5014269;28;20018;-38
2022/12/30 10:43:29;;;;;;;4.35;1.20;;;8.20;99.90;;;;;;5015790;28;20087;-37
2022/12/30 10:46:42;;;;;;;4.35;1.10;;;8.30;99.90;;;;;;5011916;28;20033;-34
2022/12/30 10:49:27;;;;;;;2.22;1.02;;;8.30;99.90;;;;;;4955149;29;20031;-33
2022/12/30 10:51:54;;;;;;;4.18;1.15;;;8.30;99.90;;;;;;5010208;28;20038;-35
2022/12/30 10:54:20;;;;;;;6.80;1.27;;;8.30;99.90;;;;;;5015582;28;20026;-38
2022/12/30 10:56:48;;;;;;;4.15;1.42;;;8.30;99.90;;;;;;5014783;28;20652;-36
2022/12/30 10:59:17;;;;;;;7.03;0.93;;;8.20;99.90;;;;;;5013996;28;20076;-33
2022/12/30 11:01:45;;;;;;;3.90;1.42;;;8.30;99.90;;;;;;5012770;28;20029;-36
2022/12/30 11:04:38;;;;;;;3.25;0.93;;;8.30;99.90;;;;;;5010743;28;20470;-40
2022/12/30 11:07:09;;;;;;;5.20;0.77;;;8.30;99.90;;;;;;5009282;28;20045;-40
2022/12/30 11:09:35;;;;;;;8.65;1.02;;;8.30;99.90;;;;;;5008888;28;20026;-33
2022/12/30 11:15:11;;;;;;;6.83;1.00;;;8.40;99.90;;;;;;5014063;28;20065;-36
2022/12/30 11:17:48;;;;;;;5.63;1.88;;;8.40;99.90;;;;;;5012244;28;20292;-58
2022/12/30 11:20:13;;;;;;;7.80;1.50;;;8.40;99.90;;;;;;5014155;28;20026;-37
2022/12/30 11:22:47;;;;;;;4.38;1.38;;;8.40;99.90;;;;;;5005840;28;20383;-38
2022/12/30 11:25:16;;;;;;;9.93;1.08;;;8.40;99.90;;;;;;5007157;28;20034;-39
2022/12/30 11:27:44;;;;;;;2.70;0.77;;;8.50;99.90;;;;;;5014386;28;20034;-34
2022/12/30 11:30:28;;;;;;;5.30;1.50;;;8.50;99.90;;;;;;5013188;28;20030;-34
2022/12/30 11:32:56;;;;;;;9.43;1.15;;;8.60;99.90;;;;;;5008138;28;20486;-38
2022/12/30 11:35:36;;;;;;;3.30;1.05;;;8.60;99.90;;;;;;5015051;28;20512;-35
2022/12/30 11:38:06;;;;;;;4.57;0.98;;;8.60;99.90;;;;;;5013638;28;20073;-38
2022/12/30 11:40:37;;;;;;;6.57;1.58;;;8.60;99.90;;;;;;5014942;28;20033;-36
2022/12/30 11:43:11;;;;;;;6.30;1.27;;;8.70;99.90;;;;;;5014157;28;20041;-35
2022/12/30 11:46:04;;;;;;;15.10;1.65;;;8.70;99.90;;;;;;5013258;28;20360;-37
2022/12/30 11:48:33;;;;;;;2.20;1.13;;;8.70;99.90;;;;;;5008271;28;20116;-48
2022/12/30 11:51:01;;;;;;;7.28;1.23;;;8.80;99.90;;;;;;5009340;28;20068;-38
2022/12/30 11:53:30;;;;;;;4.97;1.20;;;8.80;99.90;;;;;;5005903;28;20486;-36
2022/12/30 11:55:57;;;;;;;2.55;1.10;;;8.90;99.90;;;;;;5006485;28;20054;-37
2022/12/30 11:58:23;;;;;;;6.57;1.00;;;8.90;99.90;;;;;;5005980;28;20491;-39
2022/12/30 12:01:04;;;;;;;8.00;2.42;;;8.90;99.90;;;;;;5008478;28;20068;-36
2022/12/30 12:03:30;;;;;;;8.60;1.65;;;9.00;99.90;;;;;;5006962;28;20501;-36
2022/12/30 12:06:22;;;;;;;9.07;2.42;;;9.00;99.90;;;;;;5007312;28;20018;-35
2022/12/30 12:09:18;;;;;;;10.63;1.73;;;9.00;99.90;;;;;;5004493;28;20046;-55
2022/12/30 12:11:46;;;;;;;4.47;0.73;;;9.00;99.90;;;;;;5004138;28;20485;-44
2022/12/30 12:14:24;;;;;;;;;;;9.00;99.90;;;;;;5004503;28;20466;-40
2022/12/30 12:16:56;;;;;;;;;;;9.00;99.90;;;;;;5005220;28;19921;-51
2022/12/30 12:19:44;;;;;;;6.88;1.50;;;9.10;99.90;;;;;;4994871;28;19968;-42
2022/12/30 12:22:21;;;;;;;5.10;1.20;;;9.10;99.90;;;;;;5004693;28;20390;-42
2022/12/30 12:24:51;;;;;;;3.40;0.70;;;9.10;99.90;;;;;;5006719;28;20030;-42
2022/12/30 12:27:18;;;;;;;6.43;1.42;;;9.00;99.90;;;;;;5007873;28;21315;-40
2022/12/30 12:29:45;;;;;;;5.80;1.40;;;9.00;99.90;;;;;;5004411;28;20425;-52
2022/12/30 12:32:29;;;;;;;9.90;1.10;;;8.90;99.90;;;;;;5005851;28;20382;-38
2022/12/30 12:35:22;;;;;;;11.32;1.73;;;8.90;99.90;;;;;;5010802;28;20030;-59
2022/12/30 12:38:15;;;;;;;3.38;1.42;;;8.90;99.90;;;;;;5011167;28;20037;-39
2022/12/30 12:40:47;;;;;;;6.38;1.15;;;8.90;99.90;;;;;;5011291;28;20044;-40
2022/12/30 12:43:31;;;;;;;9.10;0.90;;;8.90;99.90;;;;;;5011557;28;20033;-35
2022/12/30 12:46:21;;;;;;;4.05;1.58;;;8.90;99.90;;;;;;5008509;28;20724;-37
2022/12/30 12:48:47;;;;;;;7.55;2.10;;;8.90;99.90;;;;;;5010785;28;20037;-39
2022/12/30 12:51:30;;;;;;;6.32;1.17;;;8.80;99.90;;;;;;5006576;28;20413;-37
2022/12/30 12:54:04;;;;;;;5.50;0.75;;;8.80;99.90;;;;;;5004453;28;20030;-39
2022/12/30 12:57:00;;;;;;;7.13;1.23;;;8.80;99.90;;;;;;5009056;28;20454;-38
2022/12/30 12:59:54;;;;;;;7.88;1.15;;;8.80;99.90;;;;;;5007859;28;20034;-36
2022/12/30 13:02:57;;;;;;;8.20;1.42;;;8.70;99.90;;;;;;5006037;28;20490;-42
2022/12/30 13:05:41;;;;;;;5.65;1.35;;;8.80;99.90;;;;;;5005912;28;20022;-38
2022/12/30 13:08:20;;;;;;;5.00;1.00;;;8.80;99.90;;;;;;5004706;28;20029;-37
2022/12/30 13:11:07;;;;;;;5.80;1.10;;;8.80;99.90;;;;;;5004017;28;20160;-39
2022/12/30 13:13:57;;;;;;;3.17;0.88;;;8.80;99.90;;;;;;5004215;28;20533;-43
2022/12/30 13:16:51;;;;;;;3.63;1.40;;;8.80;99.90;;;;;;5009753;28;20069;-42
2022/12/30 13:19:21;;;;;;;4.93;1.15;;;8.70;99.90;;;;;;4992764;28;20050;-40
2022/12/30 13:21:52;;;;;;;6.25;1.30;;;8.60;99.90;;;;;;5003580;28;20521;-38
2022/12/30 13:24:30;;;;;;;7.00;2.33;;;8.60;99.90;;;;;;5003992;28;20458;-41
2022/12/30 13:26:55;;;;;;;4.47;0.82;;;8.60;99.90;;;;;;5020934;28;20553;-37
2022/12/30 13:29:23;;;;;;;6.18;1.80;;;8.60;99.90;;;;;;5003822;28;20112;-44
2022/12/30 13:32:06;;;;;;;1.52;0.95;;;8.60;99.90;;;;;;5008804;28;20030;-39
2022/12/30 13:34:44;;;;;;;2.42;0.65;;;8.60;99.90;;;;;;5004855;28;20021;-39
2022/12/30 13:37:13;;;;;;;4.05;0.70;;;8.60;99.90;;;;;;5005657;28;20031;-40
2022/12/30 13:39:41;;;;;;;4.63;0.82;;;8.70;99.90;;;;;;5004094;28;20029;-42
2022/12/30 13:42:25;;;;;;;5.35;0.77;;;8.70;99.90;;;;;;5003922;28;20152;-41
2022/12/30 13:44:52;;;;;;;1.17;0.60;;;8.70;99.90;;;;;;5006335;28;20022;-42
2022/12/30 13:47:40;;;;;;;4.57;0.93;;;8.60;99.90;;;;;;5004940;28;20394;-40
2022/12/30 13:50:19;;;;;;;4.38;0.88;;;8.60;99.90;;;;;;5005568;28;20655;-46
2022/12/30 13:52:53;;;;;;;9.02;1.38;;;8.60;99.90;;;;;;5004327;28;20402;-43
2022/12/30 13:55:29;;;;;;;4.25;0.90;;;8.70;99.90;;;;;;5004554;28;20030;-42
2022/12/30 13:58:29;;;;;;;3.28;0.80;;;8.60;99.90;;;;;;5009280;28;20225;-40
2022/12/30 14:01:18;;;;;;;6.47;0.60;;;8.60;99.90;;;;;;5015129;28;20022;-42
2022/12/30 14:03:44;;;;;;;1.52;0.63;;;8.60;99.90;;;;;;5004826;28;20052;-43
2022/12/30 14:06:46;;;;;;;0.80;0.60;;;8.60;99.90;;;;;;5011072;28;20021;-42
2022/12/30 14:09:20;;;;;;;4.30;0.70;;;8.70;99.90;;;;;;5011521;28;20490;-46
2022/12/30 14:12:04;;;;;;;2.47;0.70;;;8.70;99.90;;;;;;5014873;28;20037;-44
2022/12/30 14:14:38;;;;;;;5.40;0.88;;;8.70;99.90;;;;;;5016528;28;20030;-42
2022/12/30 14:17:15;;;;;;;10.43;1.35;;;8.80;99.90;;;;;;5010346;28;20049;-43